Time;durP1;ratioP1;P1;durP2;ratioP2;P2;SDS_P1;SDS_P2;PMS_P1;PMS_P2;Temp;Humidity;BMP_temperature;BMP_pressure;BME280_temperature;BME280_humidity;BME280_pressure;Samples;Min_cycle;Max_cycle;Signal;HPM_P1;HPM_P2
2022/11/13 00:00:32;;;;;;;14.63;10.05;;;7.20;99.90;;;;;;5033195;28;20042;-69
2022/11/13 00:02:57;;;;;;;15.25;9.95;;;7.20;99.90;;;;;;5040778;28;20036;-69
2022/11/13 00:05:23;;;;;;;17.10;9.95;;;7.20;99.90;;;;;;5014723;28;20099;-69
2022/11/13 00:07:49;;;;;;;12.93;9.48;;;7.20;99.90;;;;;;5033108;28;20033;-69
2022/11/13 00:10:15;;;;;;;13.40;10.05;;;7.20;99.90;;;;;;5041769;28;20109;-69
2022/11/13 00:12:40;;;;;;;13.60;10.68;;;7.20;99.90;;;;;;5040349;28;20212;-69
2022/11/13 00:15:06;;;;;;;13.35;9.90;;;7.20;99.90;;;;;;5047961;28;20124;-69
2022/11/13 00:17:32;;;;;;;15.45;10.05;;;7.20;99.90;;;;;;5032970;28;20049;-69
2022/11/13 00:19:57;;;;;;;16.33;9.75;;;7.20;99.90;;;;;;5024599;28;20041;-69
2022/11/13 00:22:23;;;;;;;14.63;11.05;;;7.20;99.90;;;;;;5047035;28;20087;-69
2022/11/13 00:24:49;;;;;;;15.88;10.13;;;7.20;99.90;;;;;;5034942;28;20043;-69
2022/11/13 00:27:14;;;;;;;14.18;9.95;;;7.20;99.90;;;;;;5014882;28;20045;-69
2022/11/13 00:29:40;;;;;;;13.98;10.65;;;7.20;99.90;;;;;;5036499;28;20041;-69
2022/11/13 00:32:06;;;;;;;14.07;10.07;;;7.20;99.90;;;;;;5028288;28;20022;-69
2022/11/13 00:34:31;;;;;;;13.23;9.98;;;7.20;99.90;;;;;;5040805;28;20088;-69
2022/11/13 00:36:57;;;;;;;12.88;9.30;;;7.20;99.90;;;;;;5040102;28;20037;-70
2022/11/13 00:39:22;;;;;;;15.73;9.52;;;7.20;99.90;;;;;;5034567;28;20543;-69
2022/11/13 00:41:48;;;;;;;11.45;8.68;;;7.20;99.90;;;;;;5032747;28;20056;-69
2022/11/13 00:44:13;;;;;;;12.35;8.80;;;7.20;99.90;;;;;;5037977;28;20102;-69
2022/11/13 00:46:39;;;;;;;11.40;9.20;;;7.20;99.90;;;;;;5015792;28;20048;-69
2022/11/13 00:49:05;;;;;;;14.48;9.30;;;7.10;99.90;;;;;;5020438;28;20044;-70
2022/11/13 00:51:31;;;;;;;12.90;9.15;;;7.20;99.90;;;;;;5029448;28;20026;-69
2022/11/13 00:53:56;;;;;;;16.80;11.68;;;7.20;99.90;;;;;;5036386;28;20078;-69
2022/11/13 00:56:22;;;;;;;17.00;10.88;;;7.20;99.90;;;;;;5031676;28;20120;-69
2022/11/13 00:58:48;;;;;;;17.42;10.98;;;7.20;99.90;;;;;;5027143;28;20029;-69
2022/11/13 01:01:17;;;;;;;15.75;10.82;;;7.20;99.90;;;;;;5036555;28;20168;-69
2022/11/13 01:03:43;;;;;;;16.90;12.48;;;7.20;99.90;;;;;;5033641;28;20487;-69
2022/11/13 01:06:18;;;;;;;14.85;10.75;;;7.20;99.90;;;;;;5047678;28;20040;-69
2022/11/13 01:08:44;;;;;;;16.67;11.43;;;7.20;99.90;;;;;;5052906;28;20112;-69
2022/11/13 01:11:19;;;;;;;16.90;11.82;;;7.20;99.90;;;;;;5048215;28;20087;-69
2022/11/13 01:13:47;;;;;;;17.58;11.98;;;7.20;99.90;;;;;;5015324;28;20034;-68
2022/11/13 01:16:16;;;;;;;16.08;12.32;;;7.20;99.90;;;;;;5027438;28;20514;-69
2022/11/13 01:18:42;;;;;;;20.42;13.63;;;7.20;99.90;;;;;;5047310;28;20091;-69
2022/11/13 01:21:12;;;;;;;16.98;11.93;;;7.20;99.90;;;;;;5040145;28;20574;-69
2022/11/13 01:23:38;;;;;;;19.70;12.98;;;7.30;99.90;;;;;;5031451;28;20114;-69
2022/11/13 01:26:10;;;;;;;17.95;13.05;;;7.30;99.90;;;;;;5017184;28;20045;-69
2022/11/13 01:28:36;;;;;;;22.63;13.65;;;7.40;99.90;;;;;;5028609;28;20100;-69
2022/11/13 01:31:14;;;;;;;19.00;12.63;;;7.30;99.90;;;;;;5029361;28;20479;-69
2022/11/13 01:33:40;;;;;;;18.30;13.57;;;7.40;99.90;;;;;;5047944;28;20475;-69
2022/11/13 01:36:08;;;;;;;17.80;12.63;;;7.40;99.90;;;;;;5029157;28;20048;-69
2022/11/13 01:38:34;;;;;;;18.77;13.23;;;7.40;99.90;;;;;;5008375;28;20120;-69
2022/11/13 01:41:00;;;;;;;19.17;13.68;;;7.50;99.90;;;;;;5028805;28;20056;-69
2022/11/13 01:43:31;;;;;;;19.48;13.27;;;7.50;99.90;;;;;;5006067;28;20033;-69
2022/11/13 01:45:57;;;;;;;18.83;12.93;;;7.50;99.90;;;;;;5048002;28;20041;-69
2022/11/13 01:48:30;;;;;;;18.40;13.32;;;7.40;99.90;;;;;;5026587;28;20341;-69
2022/11/13 01:50:56;;;;;;;20.42;14.05;;;7.40;99.90;;;;;;5028465;28;20684;-69
2022/11/13 01:53:22;;;;;;;20.60;13.55;;;7.40;99.90;;;;;;5013011;28;20037;-69
2022/11/13 01:55:48;;;;;;;19.05;12.90;;;7.40;99.90;;;;;;5031980;28;20042;-69
2022/11/13 01:58:14;;;;;;;21.45;14.13;;;7.40;99.90;;;;;;5011596;28;20053;-69
2022/11/13 02:00:40;;;;;;;18.77;13.50;;;7.40;99.90;;;;;;5032460;28;20045;-69
2022/11/13 02:03:05;;;;;;;18.67;13.02;;;7.40;99.90;;;;;;5039347;28;20067;-69
2022/11/13 02:05:31;;;;;;;20.95;12.82;;;7.40;99.90;;;;;;5033309;28;20124;-69
2022/11/13 02:07:57;;;;;;;18.95;13.02;;;7.30;99.90;;;;;;5010787;28;20041;-69
2022/11/13 02:10:23;;;;;;;17.73;13.38;;;7.30;99.90;;;;;;5027825;28;20037;-69
2022/11/13 02:12:50;;;;;;;19.60;12.40;;;7.40;99.90;;;;;;5043019;28;20033;-69
2022/11/13 02:15:22;;;;;;;19.65;14.10;;;7.40;99.90;;;;;;5049361;28;20163;-69
2022/11/13 02:17:53;;;;;;;18.38;13.68;;;7.30;99.90;;;;;;5027128;28;20041;-69
2022/11/13 02:20:33;;;;;;;17.70;13.18;;;7.30;99.90;;;;;;5009359;28;20037;-70
2022/11/13 02:23:06;;;;;;;19.27;13.80;;;7.20;99.90;;;;;;5033046;28;20041;-69
2022/11/13 02:25:33;;;;;;;22.30;13.80;;;7.20;99.90;;;;;;5030926;28;20045;-69
2022/11/13 02:27:59;;;;;;;17.80;13.13;;;7.10;99.90;;;;;;5009725;28;20088;-69
2022/11/13 02:30:31;;;;;;;16.95;13.32;;;7.20;99.90;;;;;;5037440;28;20068;-69
2022/11/13 02:32:58;;;;;;;16.90;13.07;;;7.10;99.90;;;;;;5032050;28;20082;-69
2022/11/13 02:35:25;;;;;;;20.02;13.80;;;7.10;99.90;;;;;;5030870;28;20079;-69
2022/11/13 02:37:51;;;;;;;22.05;14.57;;;7.00;99.90;;;;;;5030084;28;20038;-69
2022/11/13 02:40:17;;;;;;;21.35;13.65;;;7.10;99.90;;;;;;5025457;28;20045;-69
2022/11/13 02:42:43;;;;;;;21.08;14.73;;;7.10;99.90;;;;;;5039747;28;20067;-69
2022/11/13 02:45:09;;;;;;;18.55;12.63;;;7.00;99.90;;;;;;5037041;28;20570;-69
2022/11/13 02:47:35;;;;;;;21.05;14.48;;;7.10;99.90;;;;;;5007331;28;20401;-69
2022/11/13 02:50:01;;;;;;;21.50;14.95;;;7.10;99.90;;;;;;5034067;28;20033;-69
2022/11/13 02:52:28;;;;;;;19.58;14.00;;;7.10;99.90;;;;;;5021920;28;20153;-69
2022/11/13 02:54:54;;;;;;;19.73;13.90;;;7.10;99.90;;;;;;5010919;28;20394;-69
2022/11/13 02:57:19;;;;;;;18.45;13.57;;;7.00;99.90;;;;;;5026600;28;20045;-69
2022/11/13 02:59:45;;;;;;;18.23;13.07;;;7.00;99.90;;;;;;5029890;28;20453;-69
2022/11/13 03:02:10;;;;;;;20.90;13.68;;;6.90;99.90;;;;;;5028316;28;20076;-69
2022/11/13 03:04:36;;;;;;;20.52;14.05;;;6.90;99.90;;;;;;5010276;28;20064;-69
2022/11/13 03:07:02;;;;;;;17.95;13.02;;;6.90;99.90;;;;;;5032662;28;20395;-69
2022/11/13 03:09:27;;;;;;;17.38;12.95;;;6.80;99.90;;;;;;5030379;28;20075;-69
2022/11/13 03:11:53;;;;;;;20.15;14.20;;;6.80;99.90;;;;;;5038889;28;20182;-69
2022/11/13 03:14:18;;;;;;;20.95;13.65;;;6.70;99.90;;;;;;5029165;28;20179;-69
2022/11/13 03:16:44;;;;;;;18.45;13.40;;;6.60;99.90;;;;;;5036493;28;20048;-69
2022/11/13 03:19:09;;;;;;;22.85;14.65;;;6.60;99.90;;;;;;5030054;28;20033;-69
2022/11/13 03:21:35;;;;;;;21.10;13.63;;;6.60;99.90;;;;;;5046900;28;20080;-69
2022/11/13 03:26:32;;;;;;;19.60;14.10;;;6.60;99.90;;;;;;5044428;28;20520;-68
2022/11/13 03:28:57;;;;;;;22.75;14.48;;;6.60;99.90;;;;;;5050092;28;20040;-68
2022/11/13 03:31:23;;;;;;;19.27;13.60;;;6.70;99.90;;;;;;5050677;28;20041;-68
2022/11/13 03:33:52;;;;;;;24.45;15.13;;;6.70;99.90;;;;;;5031632;28;20406;-68
2022/11/13 03:36:17;;;;;;;19.73;14.15;;;6.70;99.90;;;;;;5046755;28;20060;-68
2022/11/13 03:38:43;;;;;;;17.63;12.30;;;6.70;99.90;;;;;;5049694;28;20482;-68
2022/11/13 03:41:08;;;;;;;16.58;12.55;;;6.70;99.90;;;;;;5049289;28;20069;-68
2022/11/13 03:43:34;;;;;;;17.65;12.77;;;6.70;99.90;;;;;;5050693;28;20486;-68
2022/11/13 03:46:00;;;;;;;19.48;14.02;;;6.60;99.90;;;;;;5042145;28;20033;-68
2022/11/13 03:48:25;;;;;;;19.75;13.93;;;6.70;99.90;;;;;;5047314;28;20037;-68
2022/11/13 03:50:53;;;;;;;21.00;14.40;;;6.60;99.90;;;;;;5040994;28;20453;-69
2022/11/13 03:53:19;;;;;;;18.63;13.43;;;6.70;99.90;;;;;;5028091;28;20053;-68
2022/11/13 03:55:46;;;;;;;17.50;13.43;;;6.60;99.90;;;;;;5040527;28;20117;-68
2022/11/13 03:58:12;;;;;;;17.83;13.50;;;6.60;99.90;;;;;;5043638;28;20052;-68
2022/11/13 04:00:40;;;;;;;19.15;13.75;;;6.50;99.90;;;;;;5034680;28;20091;-68
2022/11/13 04:03:06;;;;;;;20.30;13.80;;;6.50;99.90;;;;;;5036339;28;20081;-68
2022/11/13 04:05:32;;;;;;;18.90;12.93;;;6.50;99.90;;;;;;5047794;28;20107;-68
2022/11/13 04:07:58;;;;;;;19.58;14.30;;;6.50;99.90;;;;;;5048936;28;20490;-68
2022/11/13 04:10:24;;;;;;;20.85;14.63;;;6.60;99.90;;;;;;5053769;28;20037;-68
2022/11/13 04:12:50;;;;;;;19.02;13.70;;;6.60;99.90;;;;;;5054060;28;20501;-67
2022/11/13 04:15:16;;;;;;;19.67;14.00;;;6.60;99.90;;;;;;5051808;28;20414;-67
2022/11/13 04:17:41;;;;;;;19.65;13.00;;;6.60;99.90;;;;;;5049297;28;20072;-68
2022/11/13 04:20:08;;;;;;;19.50;13.48;;;6.60;99.90;;;;;;5033458;28;20069;-67
2022/11/13 04:22:33;;;;;;;21.30;14.27;;;6.60;99.90;;;;;;5053689;28;20041;-67
2022/11/13 04:24:59;;;;;;;18.63;12.45;;;6.50;99.90;;;;;;5053180;28;20041;-67
2022/11/13 04:27:24;;;;;;;19.13;13.15;;;6.60;99.90;;;;;;5050662;28;20037;-67
2022/11/13 04:29:50;;;;;;;17.70;12.45;;;6.50;99.90;;;;;;5053634;28;20033;-67
2022/11/13 04:32:15;;;;;;;19.50;13.90;;;6.50;99.90;;;;;;5050050;28;20052;-67
2022/11/13 04:34:41;;;;;;;20.23;14.20;;;6.50;99.90;;;;;;5051736;28;20045;-67
2022/11/13 04:37:07;;;;;;;17.23;12.82;;;6.50;99.90;;;;;;5050577;28;20033;-67
2022/11/13 04:39:32;;;;;;;20.48;13.50;;;6.50;99.90;;;;;;5044635;28;20033;-67
2022/11/13 04:44:42;;;;;;;17.33;13.65;;;6.40;99.90;;;;;;5052835;28;20525;-67
2022/11/13 04:47:08;;;;;;;19.83;13.52;;;6.40;99.90;;;;;;5051352;28;20037;-67
2022/11/13 04:49:34;;;;;;;19.15;13.77;;;6.40;99.90;;;;;;5052079;28;20044;-67
2022/11/13 04:52:00;;;;;;;19.08;13.45;;;6.40;99.90;;;;;;5033414;28;20033;-68
2022/11/13 04:54:25;;;;;;;24.08;13.85;;;6.40;99.90;;;;;;5053258;28;20046;-67
2022/11/13 04:56:51;;;;;;;24.75;14.65;;;6.40;99.90;;;;;;5052513;28;20045;-67
2022/11/13 04:59:17;;;;;;;19.83;13.70;;;6.40;99.90;;;;;;5025942;28;20040;-68
2022/11/13 05:01:42;;;;;;;20.05;13.80;;;6.40;99.90;;;;;;5044697;28;20065;-68
2022/11/13 05:04:11;;;;;;;18.52;13.40;;;6.40;99.90;;;;;;5045939;28;20059;-68
2022/11/13 05:06:37;;;;;;;20.88;14.32;;;6.40;99.90;;;;;;5031444;28;20388;-68
2022/11/13 05:09:02;;;;;;;19.42;13.65;;;6.30;99.90;;;;;;5053150;28;20041;-67
2022/11/13 05:11:28;;;;;;;17.02;12.27;;;6.30;99.90;;;;;;5051883;28;20045;-68
2022/11/13 05:13:53;;;;;;;20.48;14.40;;;6.30;99.90;;;;;;5045493;28;20033;-66
2022/11/13 05:16:19;;;;;;;18.67;13.30;;;6.30;99.90;;;;;;5045014;28;20034;-67
2022/11/13 05:18:45;;;;;;;17.15;13.00;;;6.30;99.90;;;;;;5050046;28;20041;-67
2022/11/13 05:21:10;;;;;;;18.58;12.73;;;6.30;99.90;;;;;;5051692;28;20041;-67
2022/11/13 05:23:36;;;;;;;17.80;12.80;;;6.30;99.90;;;;;;5050951;28;20709;-67
2022/11/13 05:26:04;;;;;;;19.63;13.43;;;6.20;99.90;;;;;;5047144;28;20029;-67
2022/11/13 05:28:30;;;;;;;19.90;14.52;;;6.20;99.90;;;;;;5050033;28;20049;-67
2022/11/13 05:31:10;;;;;;;18.95;13.35;;;6.30;99.90;;;;;;5051795;28;20140;-66
2022/11/13 05:33:37;;;;;;;19.38;13.40;;;6.30;99.90;;;;;;5050704;28;20036;-67
2022/11/13 05:36:05;;;;;;;18.83;12.48;;;6.20;99.90;;;;;;5042772;28;20071;-67
2022/11/13 05:38:31;;;;;;;19.52;13.93;;;6.20;99.90;;;;;;5046553;28;20044;-67
2022/11/13 05:41:20;;;;;;;17.80;12.65;;;6.10;99.90;;;;;;5051332;28;20069;-68
2022/11/13 05:43:47;;;;;;;18.48;13.23;;;6.10;99.90;;;;;;5051014;28;20059;-69
2022/11/13 05:46:12;;;;;;;17.65;12.63;;;6.00;99.90;;;;;;5050955;28;20048;-68
2022/11/13 05:48:38;;;;;;;16.15;11.60;;;6.00;99.90;;;;;;5051745;28;20032;-68
2022/11/13 05:51:16;;;;;;;16.80;12.43;;;6.00;99.90;;;;;;5049540;28;20126;-67
2022/11/13 05:53:42;;;;;;;18.25;12.10;;;6.00;99.90;;;;;;5049252;28;20062;-67
2022/11/13 05:56:17;;;;;;;16.85;12.90;;;5.90;99.90;;;;;;5046335;28;20045;-67
2022/11/13 05:58:44;;;;;;;19.10;13.35;;;5.90;99.90;;;;;;5045099;28;20041;-68
2022/11/13 06:01:13;;;;;;;20.80;13.57;;;5.90;99.90;;;;;;5050184;28;20048;-68
2022/11/13 06:03:38;;;;;;;18.60;12.98;;;5.90;99.90;;;;;;5047450;28;20095;-69
2022/11/13 06:06:06;;;;;;;19.30;12.77;;;6.00;99.90;;;;;;5046793;28;20036;-68
2022/11/13 06:08:32;;;;;;;17.73;13.80;;;5.90;99.90;;;;;;5048763;28;20127;-68
2022/11/13 06:11:00;;;;;;;18.83;13.00;;;5.90;99.90;;;;;;5044095;28;20075;-68
2022/11/13 06:13:25;;;;;;;16.45;12.63;;;6.00;99.90;;;;;;5047916;28;20034;-68
2022/11/13 06:15:51;;;;;;;17.48;12.73;;;6.00;99.90;;;;;;5043492;28;20048;-69
2022/11/13 06:18:22;;;;;;;18.23;12.27;;;5.90;99.90;;;;;;5050045;28;20116;-68
2022/11/13 06:20:47;;;;;;;20.08;13.32;;;6.00;99.90;;;;;;5043829;28;20045;-68
2022/11/13 06:23:13;;;;;;;18.25;12.55;;;5.90;99.90;;;;;;5040657;28;20115;-68
2022/11/13 06:25:39;;;;;;;23.00;14.43;;;5.90;99.90;;;;;;5046494;28;20033;-68
2022/11/13 06:28:04;;;;;;;18.33;13.15;;;5.90;99.90;;;;;;5045349;28;20678;-68
2022/11/13 06:30:30;;;;;;;17.88;12.20;;;5.90;99.90;;;;;;5048690;28;20038;-68
2022/11/13 06:32:55;;;;;;;15.77;11.88;;;5.90;99.90;;;;;;5042355;28;20037;-68
2022/11/13 06:35:21;;;;;;;20.30;13.75;;;5.90;99.90;;;;;;5040405;28;20048;-68
2022/11/13 06:37:47;;;;;;;16.75;11.25;;;5.80;99.90;;;;;;5045816;28;20086;-68
2022/11/13 06:40:12;;;;;;;16.85;11.10;;;5.80;99.90;;;;;;5043750;28;20574;-69
2022/11/13 06:42:38;;;;;;;15.30;10.90;;;5.80;99.90;;;;;;5038960;28;20580;-69
2022/11/13 06:45:05;;;;;;;15.50;11.05;;;5.70;99.90;;;;;;5043264;28;20441;-69
2022/11/13 06:47:30;;;;;;;16.00;11.60;;;5.70;99.90;;;;;;5048724;28;20037;-69
2022/11/13 06:49:56;;;;;;;20.15;11.93;;;5.70;99.90;;;;;;5045778;28;20490;-69
2022/11/13 06:52:22;;;;;;;15.65;11.82;;;5.70;99.90;;;;;;5041320;28;20041;-69
2022/11/13 06:54:47;;;;;;;15.57;11.88;;;5.70;99.90;;;;;;5044295;28;20128;-69
2022/11/13 06:57:13;;;;;;;16.65;12.35;;;5.80;99.90;;;;;;5031990;28;20376;-69
2022/11/13 06:59:38;;;;;;;16.20;12.30;;;5.70;99.90;;;;;;5048758;28;20029;-69
2022/11/13 07:02:04;;;;;;;17.80;11.63;;;5.70;99.90;;;;;;5050070;28;20403;-69
2022/11/13 07:04:30;;;;;;;18.15;12.32;;;5.70;99.90;;;;;;5037958;28;20037;-69
2022/11/13 07:06:55;;;;;;;15.55;11.88;;;5.70;99.90;;;;;;5044137;28;20577;-69
2022/11/13 07:09:21;;;;;;;16.25;12.05;;;5.60;99.90;;;;;;5032321;28;20064;-68
2022/11/13 07:11:46;;;;;;;17.25;13.18;;;5.60;99.90;;;;;;5042382;28;20047;-69
2022/11/13 07:14:12;;;;;;;19.48;13.18;;;5.60;99.90;;;;;;5042328;28;20559;-69
2022/11/13 07:16:38;;;;;;;18.05;12.27;;;5.70;99.90;;;;;;5029553;28;20037;-68
2022/11/13 07:19:04;;;;;;;20.35;13.13;;;5.60;99.90;;;;;;5032357;28;20033;-67
2022/11/13 07:21:30;;;;;;;21.10;13.32;;;5.70;99.90;;;;;;5044207;28;20057;-67
2022/11/13 07:23:56;;;;;;;19.50;12.90;;;5.70;99.90;;;;;;5045087;28;20490;-68
2022/11/13 07:26:21;;;;;;;19.58;13.10;;;5.70;99.90;;;;;;5015533;28;20124;-67
2022/11/13 07:28:48;;;;;;;19.00;13.05;;;5.70;99.90;;;;;;5049417;28;20365;-67
2022/11/13 07:31:16;;;;;;;19.77;14.07;;;5.70;99.90;;;;;;5045375;28;20076;-68
2022/11/13 07:33:42;;;;;;;19.38;13.00;;;5.70;99.90;;;;;;5032494;28;20486;-68
2022/11/13 07:36:08;;;;;;;19.63;13.50;;;5.80;99.90;;;;;;5049578;28;20524;-67
2022/11/13 07:38:35;;;;;;;20.13;13.40;;;5.90;99.90;;;;;;5049998;28;20090;-67
2022/11/13 07:41:00;;;;;;;18.77;12.85;;;5.80;99.90;;;;;;5049886;28;20036;-67
2022/11/13 07:43:26;;;;;;;17.15;11.70;;;5.80;99.90;;;;;;5054240;28;20055;-68
2022/11/13 07:45:55;;;;;;;18.65;12.85;;;5.80;99.90;;;;;;5049260;28;20072;-68
2022/11/13 07:48:22;;;;;;;17.33;12.70;;;5.90;99.90;;;;;;5046760;28;20035;-68
2022/11/13 07:50:47;;;;;;;17.70;12.48;;;5.90;99.90;;;;;;5049224;28;20033;-68
2022/11/13 07:53:13;;;;;;;18.83;13.48;;;5.90;99.90;;;;;;5048515;28;20182;-67
2022/11/13 07:55:39;;;;;;;19.75;12.38;;;5.90;99.90;;;;;;5051514;28;20528;-67
2022/11/13 07:58:05;;;;;;;24.20;13.52;;;5.90;99.90;;;;;;5048360;28;20041;-67
2022/11/13 08:00:32;;;;;;;19.88;12.90;;;6.00;99.90;;;;;;5049531;28;20037;-67
2022/11/13 08:03:03;;;;;;;17.02;12.43;;;6.00;99.90;;;;;;5050883;28;20043;-67
2022/11/13 08:05:29;;;;;;;17.35;12.43;;;6.10;99.90;;;;;;5043675;28;20044;-68
2022/11/13 08:07:55;;;;;;;19.10;13.68;;;6.10;99.90;;;;;;5047741;28;20425;-68
2022/11/13 08:10:21;;;;;;;19.05;14.02;;;6.20;99.90;;;;;;5049135;28;20036;-68
2022/11/13 08:12:47;;;;;;;19.98;13.48;;;6.30;99.90;;;;;;5048562;28;20037;-68
2022/11/13 08:15:13;;;;;;;22.40;14.13;;;6.40;99.90;;;;;;5052785;28;20051;-68
2022/11/13 08:17:38;;;;;;;18.70;13.07;;;6.50;99.90;;;;;;5054204;28;20037;-67
2022/11/13 08:20:05;;;;;;;18.45;13.10;;;6.60;99.90;;;;;;5047415;28;20410;-67
2022/11/13 08:22:31;;;;;;;18.60;12.25;;;6.60;99.90;;;;;;5046922;28;20042;-68
2022/11/13 08:24:57;;;;;;;19.73;13.20;;;6.70;99.90;;;;;;5052147;28;20071;-68
2022/11/13 08:27:23;;;;;;;18.65;13.30;;;6.70;99.90;;;;;;5052568;28;20157;-68
2022/11/13 08:29:49;;;;;;;16.13;12.57;;;6.90;99.90;;;;;;5052441;28;20025;-68
2022/11/13 08:32:16;;;;;;;18.90;13.20;;;6.90;99.90;;;;;;5044803;28;20099;-67
2022/11/13 08:34:42;;;;;;;18.05;13.50;;;7.00;99.90;;;;;;5046494;28;20052;-68
2022/11/13 08:37:07;;;;;;;16.30;13.07;;;7.10;99.90;;;;;;5052295;28;20033;-65
2022/11/13 08:39:36;;;;;;;18.60;12.20;;;7.20;99.90;;;;;;5034771;28;20044;-65
2022/11/13 08:42:02;;;;;;;17.42;12.93;;;7.30;99.90;;;;;;5029089;28;20037;-65
2022/11/13 08:44:28;;;;;;;16.27;12.73;;;7.40;99.90;;;;;;5051430;28;20327;-66
2022/11/13 08:46:54;;;;;;;17.05;12.20;;;7.60;99.90;;;;;;5050947;28;20116;-65
2022/11/13 08:49:19;;;;;;;17.08;12.65;;;7.60;99.90;;;;;;5028523;28;20044;-65
2022/11/13 08:51:45;;;;;;;16.30;12.35;;;7.70;99.90;;;;;;5033817;28;20040;-65
2022/11/13 08:54:10;;;;;;;17.50;12.45;;;7.80;99.90;;;;;;5053585;28;20529;-65
2022/11/13 08:56:36;;;;;;;15.93;12.07;;;7.80;99.90;;;;;;5051077;28;20036;-65
2022/11/13 08:59:02;;;;;;;17.40;12.85;;;7.80;99.90;;;;;;5051820;28;20035;-65
2022/11/13 09:01:27;;;;;;;16.23;11.70;;;7.80;99.90;;;;;;5051603;28;20032;-65
2022/11/13 09:03:53;;;;;;;17.23;12.25;;;7.80;99.90;;;;;;5044850;28;20444;-65
2022/11/13 09:06:19;;;;;;;16.13;12.18;;;7.90;99.90;;;;;;5047954;28;20033;-65
2022/11/13 09:08:44;;;;;;;17.73;13.15;;;8.00;99.90;;;;;;5044860;28;20090;-65
2022/11/13 09:11:10;;;;;;;20.25;12.35;;;8.10;99.90;;;;;;5051821;28;20028;-64
2022/11/13 09:13:36;;;;;;;15.00;11.65;;;8.20;99.90;;;;;;5034190;28;20029;-64
2022/11/13 09:16:02;;;;;;;16.27;12.05;;;8.20;99.90;;;;;;5038160;28;20108;-65
2022/11/13 09:18:28;;;;;;;16.88;11.90;;;8.30;99.90;;;;;;5021374;28;20047;-65
2022/11/13 09:20:54;;;;;;;16.38;12.52;;;8.40;99.90;;;;;;5040596;28;20041;-65
2022/11/13 09:23:20;;;;;;;15.32;11.68;;;8.50;99.90;;;;;;5054231;28;20037;-66
2022/11/13 09:25:46;;;;;;;16.60;12.20;;;8.50;99.90;;;;;;5050571;28;20118;-65
2022/11/13 09:28:12;;;;;;;14.23;11.25;;;8.60;99.90;;;;;;5048879;28;20498;-65
2022/11/13 09:30:39;;;;;;;16.42;11.70;;;8.60;99.90;;;;;;5045977;28;20047;-65
2022/11/13 09:33:05;;;;;;;14.70;11.82;;;8.70;99.90;;;;;;5044693;28;20075;-65
2022/11/13 09:35:35;;;;;;;15.65;11.35;;;8.80;99.90;;;;;;5044612;28;20402;-63
2022/11/13 09:38:12;;;;;;;15.48;11.80;;;8.80;99.90;;;;;;5053109;28;20320;-63
2022/11/13 09:40:55;;;;;;;15.35;11.75;;;8.80;99.90;;;;;;5031859;28;20044;-63
2022/11/13 09:43:55;;;;;;;16.30;11.50;;;8.90;99.90;;;;;;5049268;28;20494;-63
2022/11/13 09:46:45;;;;;;;16.73;11.70;;;8.90;99.90;;;;;;5051223;28;20441;-63
2022/11/13 09:49:22;;;;;;;17.35;12.25;;;9.00;99.90;;;;;;5037476;28;20041;-63
2022/11/13 09:52:03;;;;;;;15.88;11.68;;;8.90;99.90;;;;;;5048719;28;20098;-63
2022/11/13 09:54:29;;;;;;;15.75;11.52;;;9.10;99.90;;;;;;5048556;28;20533;-63
2022/11/13 09:56:57;;;;;;;16.60;11.73;;;9.20;99.90;;;;;;5052316;28;20073;-63
2022/11/13 09:59:35;;;;;;;17.05;12.45;;;9.20;99.90;;;;;;5044854;28;20594;-63
2022/11/13 10:02:06;;;;;;;16.67;11.45;;;9.40;99.90;;;;;;5040512;28;20116;-63
2022/11/13 10:04:41;;;;;;;16.38;11.70;;;9.50;99.90;;;;;;5041788;28;20041;-64
2022/11/13 10:07:22;;;;;;;16.33;11.50;;;9.60;99.90;;;;;;5051631;28;20067;-64
2022/11/13 10:09:53;;;;;;;15.10;11.50;;;9.70;99.90;;;;;;5048619;28;20033;-63
2022/11/13 10:12:20;;;;;;;14.35;11.38;;;9.80;99.90;;;;;;5044594;28;20474;-63
2022/11/13 10:14:54;;;;;;;14.82;11.43;;;9.80;99.90;;;;;;5046991;28;20040;-64
2022/11/13 10:17:47;;;;;;;16.38;11.13;;;9.90;99.90;;;;;;5018595;28;20088;-63
2022/11/13 10:20:19;;;;;;;15.25;10.88;;;10.00;99.90;;;;;;5049891;28;20072;-63
2022/11/13 10:22:58;;;;;;;14.50;10.68;;;10.10;99.90;;;;;;5051772;28;20049;-64
2022/11/13 10:25:34;;;;;;;14.23;11.02;;;10.20;99.90;;;;;;5031640;28;20049;-64
2022/11/13 10:28:08;;;;;;;13.52;10.48;;;10.20;99.90;;;;;;5046856;28;20068;-63
2022/11/13 10:30:33;;;;;;;13.65;10.00;;;10.30;99.90;;;;;;5047211;28;20052;-63
2022/11/13 10:33:07;;;;;;;13.05;10.35;;;10.40;99.90;;;;;;5051350;28;20033;-63
2022/11/13 10:35:44;;;;;;;12.50;10.18;;;10.30;99.90;;;;;;5046394;28;20057;-63
2022/11/13 10:38:27;;;;;;;13.48;9.80;;;10.40;99.90;;;;;;5049966;28;20436;-64
2022/11/13 10:41:05;;;;;;;14.27;10.48;;;10.40;99.90;;;;;;5048299;28;20095;-64
2022/11/13 10:43:31;;;;;;;13.60;10.45;;;10.40;99.90;;;;;;5050710;28;20037;-64
2022/11/13 10:46:02;;;;;;;12.98;9.82;;;10.40;99.90;;;;;;5047791;28;20040;-63
2022/11/13 10:48:32;;;;;;;13.88;10.90;;;10.40;99.90;;;;;;5050156;28;20041;-63
2022/11/13 10:51:00;;;;;;;13.35;10.10;;;10.50;99.90;;;;;;5034698;28;20037;-63
2022/11/13 10:53:32;;;;;;;13.45;9.85;;;10.60;99.90;;;;;;5051419;28;20044;-64
2022/11/13 10:55:58;;;;;;;13.65;9.60;;;10.70;99.90;;;;;;5049307;28;20041;-64
2022/11/13 10:58:24;;;;;;;12.18;9.25;;;10.70;99.90;;;;;;5047053;28;20167;-64
2022/11/13 11:00:51;;;;;;;11.35;9.13;;;10.80;99.90;;;;;;5050329;28;20112;-64
2022/11/13 11:03:19;;;;;;;11.55;9.23;;;10.90;99.90;;;;;;5051719;28;20053;-64
2022/11/13 11:06:00;;;;;;;10.93;9.27;;;11.00;99.90;;;;;;5032365;28;20041;-64
2022/11/13 11:08:34;;;;;;;11.67;8.00;;;11.10;99.90;;;;;;5049211;28;20048;-64
2022/11/13 11:13:45;;;;;;;12.70;8.98;;;11.20;99.90;;;;;;5039232;28;20095;-64
2022/11/13 11:16:45;;;;;;;11.80;9.18;;;11.30;99.90;;;;;;5041281;28;20048;-64
2022/11/13 11:19:14;;;;;;;12.30;8.35;;;11.40;99.90;;;;;;5041635;28;20572;-64
2022/11/13 11:21:41;;;;;;;9.82;7.95;;;11.40;99.90;;;;;;5041919;28;20034;-64
2022/11/13 11:24:32;;;;;;;10.27;7.95;;;11.60;99.90;;;;;;5046814;28;20209;-64
2022/11/13 11:27:24;;;;;;;9.63;8.32;;;11.70;99.90;;;;;;5039545;28;20041;-63
2022/11/13 11:30:07;;;;;;;9.10;7.53;;;11.70;99.90;;;;;;5043776;28;20029;-64
2022/11/13 11:32:42;;;;;;;9.45;7.40;;;11.80;99.90;;;;;;5029274;28;20075;-64
2022/11/13 11:35:18;;;;;;;9.23;7.63;;;11.90;99.90;;;;;;5024239;28;20041;-64
2022/11/13 11:37:54;;;;;;;9.80;7.57;;;12.00;99.90;;;;;;5048522;28;20037;-64
2022/11/13 11:40:29;;;;;;;10.57;7.97;;;12.00;99.90;;;;;;5042111;28;20054;-64
2022/11/13 11:42:55;;;;;;;10.05;7.65;;;12.10;99.90;;;;;;5048173;28;20128;-64
2022/11/13 11:45:36;;;;;;;9.57;8.00;;;12.20;99.90;;;;;;5031869;28;20128;-64
2022/11/13 11:48:04;;;;;;;10.73;8.68;;;12.20;99.90;;;;;;5044471;28;20040;-63
2022/11/13 11:51:08;;;;;;;10.65;8.10;;;12.20;99.90;;;;;;5046267;28;20045;-64
2022/11/13 11:53:45;;;;;;;9.48;7.43;;;12.30;99.90;;;;;;5045009;28;20039;-64
2022/11/13 11:56:34;;;;;;;10.95;7.68;;;12.40;99.90;;;;;;5032007;28;20075;-64
2022/11/13 11:59:08;;;;;;;9.23;7.88;;;12.40;99.90;;;;;;5045424;28;20512;-64
2022/11/13 12:01:55;;;;;;;8.52;7.03;;;12.40;99.90;;;;;;5048537;28;20494;-64
2022/11/13 12:04:33;;;;;;;9.25;8.10;;;12.50;99.90;;;;;;5042907;28;20068;-64
2022/11/13 12:07:01;;;;;;;9.68;7.32;;;12.50;99.90;;;;;;5047607;28;20033;-64
2022/11/13 12:09:34;;;;;;;10.02;7.80;;;12.60;99.90;;;;;;5045879;28;20041;-64
2022/11/13 12:12:15;;;;;;;10.02;7.80;;;12.60;99.90;;;;;;5042246;28;20037;-65
2022/11/13 12:15:08;;;;;;;10.02;7.85;;;12.70;99.90;;;;;;5041787;28;20124;-64
2022/11/13 12:17:59;;;;;;;11.00;7.18;;;12.70;99.90;;;;;;5026961;28;20402;-65
2022/11/13 12:20:50;;;;;;;9.70;7.13;;;12.90;99.90;;;;;;5041616;28;20083;-64
2022/11/13 12:23:25;;;;;;;9.00;5.97;;;12.90;99.90;;;;;;5045802;28;20052;-65
2022/11/13 12:26:27;;;;;;;8.50;6.70;;;13.00;99.90;;;;;;5045081;28;20033;-64
2022/11/13 12:28:53;;;;;;;10.10;6.80;;;13.00;99.90;;;;;;5034129;28;20390;-64
2022/11/13 12:31:21;;;;;;;7.65;6.65;;;13.10;99.90;;;;;;5031576;28;20041;-64
2022/11/13 12:34:06;;;;;;;9.25;7.32;;;13.20;99.90;;;;;;5054557;28;20578;-64
2022/11/13 12:36:32;;;;;;;8.38;6.97;;;13.20;99.90;;;;;;5021389;28;20120;-64
2022/11/13 12:39:39;;;;;;;;;;;;;;;;;;;;;
2022/11/13 12:42:40;;;;;;;7.93;6.90;;;13.40;99.90;;;;;;5041633;28;20122;-64
2022/11/13 12:45:28;;;;;;;7.90;6.65;;;13.60;99.90;;;;;;5043831;28;20069;-63
2022/11/13 12:47:53;;;;;;;8.27;6.68;;;13.70;99.90;;;;;;5048987;28;20410;-64
2022/11/13 12:50:26;;;;;;;7.85;6.90;;;13.70;99.90;;;;;;5052541;28;20044;-64
2022/11/13 12:53:08;;;;;;;8.60;6.63;;;13.80;99.90;;;;;;5037942;28;20406;-64
2022/11/13 12:55:39;;;;;;;9.80;7.15;;;13.90;99.90;;;;;;5038689;28;20033;-64